Maersk Nimes — VRFO7 — position and weather

sailwx.info

Track history (hours):
 
Tides and Currents Weather Stations Pressure Air Temp Water Temp Dewpoint Dewpoint Depression Visibility Wind Speed Wind Dir Waves Ship Positions

Maersk Nimes

Last reported at 2015-Sep-02 12:21 UTC. Time now 2015-Sep-02 12:55 UTC.
Position N 54°60' E 013°39'.

Length 210 m; draft 10 m.

Type: Cargo ship. MMSI: 477559200.

Date/timePositionNaut miles runAvg speedWind from/ knotsBaromVisibWave heightAir tempDewpointWater temp
2015-Sep-02 12:21N 54°60' E 013°39'911.7
2015-Sep-02 11:33N 55°03' E 013°54'1111.3
2015-Sep-02 10:33N 55°08' E 014°12'1313.0
2015-Sep-02 09:33N 55°18' E 014°25'1211.7
2015-Sep-02 08:33N 55°27' E 014°40'1212.3
2015-Sep-02 07:33N 55°33' E 014°59'1212.1
2015-Sep-02 06:33N 55°38' E 015°18'1312.6
2015-Sep-02 05:33N 55°41' E 015°40'8112.8
2015-Sep-01 23:12N 56°04' E 017°59'812.7
2015-Sep-01 22:33N 56°09' E 018°11'1312.9
2015-Sep-01 21:33N 56°16' E 018°30'23012.8
2015-Sep-01 03:33N 59°28' E 022°26'2813.1
2015-Sep-01 01:25N 59°37' E 023°18'1213.2
2015-Sep-01 00:33N 59°41' E 023°40'1313.2
2015-Aug-31 23:33N 59°44' E 024°05'1313.2
2015-Aug-31 22:33N 59°48' E 024°30'1313.1
2015-Aug-31 21:33N 59°50' E 024°56'1412.9
2015-Aug-31 20:30N 59°53' E 025°22'1613.3
2015-Aug-31 19:17N 59°56' E 025°54'2212.9
2015-Aug-31 17:33N 60°01' E 026°37'1313.0
2015-Aug-31 16:33N 59°60' E 027°03'1313.0
2015-Aug-31 15:33N 60°06' E 027°26'6712.4
2015-Aug-31 10:09N 59°60' E 029°39'5 8.7
2015-Aug-31 09:33N 59°58' E 029°48'1010.4
2015-Aug-31 08:33N 59°54' E 030°08'2 2.2
2015-Aug-31 07:33N 59°53' E 030°12'0 0.0
2015-Aug-31 06:33N 59°53' E 030°12'0 0.0
2015-Aug-31 05:33N 59°53' E 030°12'0 0.0
2015-Aug-31 04:32N 59°53' E 030°12'0 0.0
2015-Aug-31 03:32N 59°53' E 030°12'0 0.0
2015-Aug-31 02:32N 59°53' E 030°12'0 0.0
2015-Aug-31 01:32N 59°53' E 030°12'0 0.0
2015-Aug-31 00:32N 59°53' E 030°12'0 0.0
2015-Aug-30 23:32N 59°53' E 030°12'0 0.0
2015-Aug-30 22:32N 59°53' E 030°12'0 0.0
2015-Aug-30 21:32N 59°53' E 030°12'0 0.0
2015-Aug-30 20:32N 59°53' E 030°12'0 0.0
2015-Aug-30 19:32N 59°53' E 030°12'0 0.0
2015-Aug-30 18:32N 59°53' E 030°12'0 0.0
2015-Aug-30 17:32N 59°53' E 030°12'0 0.0
2015-Aug-30 16:32N 59°53' E 030°12'0 0.0
2015-Aug-30 15:32N 59°53' E 030°12'0 0.0
2015-Aug-30 14:32N 59°53' E 030°12'0 0.0
2015-Aug-30 13:32N 59°53' E 030°12'0 0.0
2015-Aug-30 12:32N 59°53' E 030°12'0 0.0
2015-Aug-30 11:32N 59°53' E 030°12'0 0.0
2015-Aug-30 10:32N 59°53' E 030°12'1 0.5
2015-Aug-30 09:34N 59°53' E 030°11'1 1.3
2015-Aug-30 08:31N 59°53' E 030°13'0 0.0
2015-Aug-30 07:31N 59°53' E 030°13'0 0.0
2015-Aug-30 06:31N 59°53' E 030°13'0 0.0
2015-Aug-30 05:31N 59°53' E 030°13'0 0.0
2015-Aug-30 04:31N 59°53' E 030°13'0 0.0
2015-Aug-30 03:31N 59°53' E 030°13'0 0.0
2015-Aug-30 02:31N 59°53' E 030°13'0 0.0
2015-Aug-30 01:31N 59°53' E 030°13'0 0.0
2015-Aug-30 00:31N 59°53' E 030°13'0 0.0
2015-Aug-29 23:31N 59°53' E 030°13'0 0.0
2015-Aug-29 22:31N 59°53' E 030°13'0 0.0
2015-Aug-29 21:31N 59°53' E 030°13'0 0.0
2015-Aug-29 20:31N 59°53' E 030°13'0 0.0
2015-Aug-29 19:31N 59°53' E 030°13'0 0.0
2015-Aug-29 18:31N 59°53' E 030°13'0 0.0
2015-Aug-29 17:31N 59°53' E 030°13'0 0.0
2015-Aug-29 16:31N 59°53' E 030°13'0 0.0
2015-Aug-29 15:31N 59°53' E 030°13'1 0.8
2015-Aug-29 14:34N 59°53' E 030°12'8 8.2
2015-Aug-29 13:33N 59°56' E 029°56'1110.7
2015-Aug-29 12:34N 60°00' E 029°37'7011.4
2015-Aug-29 06:28N 60°02' E 027°18'1211.7
2015-Aug-29 05:25N 59°58' E 026°55'1112.4
2015-Aug-29 04:33N 59°59' E 026°34'1512.9
2015-Aug-29 03:25N 59°55' E 026°05'1213.1
2015-Aug-29 02:32N 59°52' E 025°43'5112.7
2015-Aug-28 22:33N 59°39' E 024°05'1312.5
2015-Aug-28 21:33N 59°36' E 023°41'1312.7
2015-Aug-28 20:32N 59°32' E 023°17'33611.8
2015-Aug-27 16:03N 55°39' E 015°46'612.4
2015-Aug-27 15:33N 55°37' E 015°35'1312.7
2015-Aug-27 14:33N 55°33' E 015°14'1312.6
2015-Aug-27 13:33N 55°28' E 014°54'1212.3
2015-Aug-27 12:33N 55°21' E 014°36'1212.4
2015-Aug-27 11:33N 55°12' E 014°22'1212.5
2015-Aug-27 10:33N 55°02' E 014°08'1212.4
2015-Aug-27 09:33N 54°57' E 013°48'1212.5
2015-Aug-27 08:33N 54°53' E 013°28'1212.4
2015-Aug-27 07:33N 54°49' E 013°07'1312.8
2015-Aug-27 06:33N 54°45' E 012°46'1312.7
2015-Aug-27 05:33N 54°39' E 012°27'1212.0
2015-Aug-27 04:33N 54°30' E 012°14'1110.8
2015-Aug-27 03:34N 54°25' E 011°57'1211.8
2015-Aug-27 02:33N 54°27' E 011°37'1212.3
2015-Aug-27 01:33N 54°33' E 011°18'1212.4
2015-Aug-27 00:33N 54°39' E 010°59'1110.9
2015-Aug-26 23:33N 54°49' E 010°52'1312.3
2015-Aug-26 22:32N 55°00' E 011°01'1212.1
2015-Aug-26 21:33N 55°12' E 011°05'1212.1
2015-Aug-26 20:33N 55°24' E 010°60'5911.8
2015-Aug-26 15:33N 56°21' E 011°26'1313.6
2015-Aug-26 14:33N 56°32' E 011°38'1312.9
2015-Aug-26 13:33N 56°43' E 011°50'1312.8
2015-Aug-26 12:33N 56°56' E 011°45'1313.0
2015-Aug-26 11:33N 57°08' E 011°38'1313.1
2015-Aug-26 10:33N 57°20' E 011°29'1312.6
2015-Aug-26 09:33N 57°31' E 011°16'1212.3
2015-Aug-26 08:33N 57°40' E 011°01'1111.0
2015-Aug-26 07:33N 57°47' E 010°44'1312.6
2015-Aug-26 06:33N 57°49' E 010°21'1110.8
2015-Aug-26 05:30N 57°48' E 009°60'17510.8
2015-Aug-25 13:23N 55°33' E 006°39'1012.4
2015-Aug-25 12:33N 55°23' E 006°35'1111.0
2015-Aug-25 11:33N 55°12' E 006°39'1212.1
2015-Aug-25 10:33N 55°01' E 006°48'1312.6
2015-Aug-25 09:33N 54°49' E 006°56'1312.6
2015-Aug-25 08:33N 54°38' E 007°05'1212.4
2015-Aug-25 07:33N 54°27' E 007°15'1313.0
2015-Aug-25 06:33N 54°16' E 007°26'1313.1
2015-Aug-25 05:33N 54°04' E 007°36'1312.5
2015-Aug-25 04:33N 53°53' E 007°47'1212.5
2015-Aug-25 03:33N 53°49' E 008°07'1514.9
2015-Aug-25 02:34N 53°39' E 008°25'5 5.2
2015-Aug-25 01:34N 53°35' E 008°31'0 0.0
2015-Aug-25 00:33N 53°35' E 008°31'0 0.0
2015-Aug-24 23:33N 53°35' E 008°31'0 0.0
2015-Aug-24 22:33N 53°35' E 008°31'0 0.0
2015-Aug-24 21:33N 53°35' E 008°31'0 0.0
2015-Aug-24 20:33N 53°35' E 008°31'0 0.0
2015-Aug-24 19:33N 53°35' E 008°31'0 0.0
2015-Aug-24 18:33N 53°35' E 008°31'0 0.0
2015-Aug-24 17:33N 53°35' E 008°31'0 0.0
2015-Aug-24 16:33N 53°35' E 008°31'0 0.0
2015-Aug-24 15:33N 53°35' E 008°31'0 0.0
2015-Aug-24 14:33N 53°35' E 008°31'0 0.0
2015-Aug-24 13:33N 53°35' E 008°31'0 0.0
2015-Aug-24 12:33N 53°35' E 008°31'0 0.0
2015-Aug-24 11:33N 53°35' E 008°31'0 0.0
2015-Aug-24 10:33N 53°35' E 008°31'0 0.0
2015-Aug-24 09:33N 53°35' E 008°31'0 0.0
2015-Aug-24 08:33N 53°35' E 008°31'0 0.0
2015-Aug-24 07:33N 53°35' E 008°31'0 0.0
2015-Aug-24 06:33N 53°35' E 008°31'3 2.9
2015-Aug-24 05:33N 53°37' E 008°28'1111.2
2015-Aug-24 04:33N 53°45' E 008°13'1212.2
2015-Aug-24 03:33N 53°51' E 007°56'6 6.2
2015-Aug-24 02:34N 53°58' E 007°54'1514.7
2015-Aug-24 01:33N 53°60' E 008°19'1413.7
2015-Aug-24 00:33N 53°55' E 008°41'1413.7
2015-Aug-23 23:33N 53°52' E 009°03'1212.1
2015-Aug-23 22:33N 53°48' E 009°23'1515.3
2015-Aug-23 21:34N 53°35' E 009°37'1211.9
2015-Aug-23 20:33N 53°33' E 009°56'2 2.2
2015-Aug-23 19:29N 53°32' E 009°60'0 0.0
2015-Aug-23 18:32N 53°32' E 009°60'0 0.0
2015-Aug-23 17:29N 53°32' E 009°60'0 0.0
2015-Aug-23 16:29N 53°32' E 009°60'0 0.0
2015-Aug-23 15:32N 53°32' E 009°60'0 0.0
2015-Aug-23 14:32N 53°32' E 009°60'0 0.0
2015-Aug-23 13:32N 53°32' E 009°60'0 0.0
2015-Aug-23 12:32N 53°32' E 009°60'  
Track history (hours):
 
Tides and Currents Weather Stations Pressure Air Temp Water Temp Dewpoint Dewpoint Depression Visibility Wind Speed Wind Dir Waves Ship Positions

Maersk Nimes

Last reported at 2015-Sep-02 12:21 UTC. Time now 2015-Sep-02 12:55 UTC.
Position N 54°60' E 013°39'.

Length 210 m; draft 10 m.

Type: Cargo ship. MMSI: 477559200.

Date/timePositionNaut miles runAvg speedWind from/ knotsBaromVisibWave heightAir tempDewpointWater temp
2015-Sep-02 12:21N 54°60' E 013°39'911.7
2015-Sep-02 11:33N 55°03' E 013°54'1111.3
2015-Sep-02 10:33N 55°08' E 014°12'1313.0
2015-Sep-02 09:33N 55°18' E 014°25'1211.7
2015-Sep-02 08:33N 55°27' E 014°40'1212.3
2015-Sep-02 07:33N 55°33' E 014°59'1212.1
2015-Sep-02 06:33N 55°38' E 015°18'1312.6
2015-Sep-02 05:33N 55°41' E 015°40'8112.8
2015-Sep-01 23:12N 56°04' E 017°59'812.7
2015-Sep-01 22:33N 56°09' E 018°11'1312.9
2015-Sep-01 21:33N 56°16' E 018°30'23012.8
2015-Sep-01 03:33N 59°28' E 022°26'2813.1
2015-Sep-01 01:25N 59°37' E 023°18'1213.2
2015-Sep-01 00:33N 59°41' E 023°40'1313.2
2015-Aug-31 23:33N 59°44' E 024°05'1313.2
2015-Aug-31 22:33N 59°48' E 024°30'1313.1
2015-Aug-31 21:33N 59°50' E 024°56'1412.9
2015-Aug-31 20:30N 59°53' E 025°22'1613.3
2015-Aug-31 19:17N 59°56' E 025°54'2212.9
2015-Aug-31 17:33N 60°01' E 026°37'1313.0
2015-Aug-31 16:33N 59°60' E 027°03'1313.0
2015-Aug-31 15:33N 60°06' E 027°26'6712.4
2015-Aug-31 10:09N 59°60' E 029°39'5 8.7
2015-Aug-31 09:33N 59°58' E 029°48'1010.4
2015-Aug-31 08:33N 59°54' E 030°08'2 2.2
2015-Aug-31 07:33N 59°53' E 030°12'0 0.0
2015-Aug-31 06:33N 59°53' E 030°12'0 0.0
2015-Aug-31 05:33N 59°53' E 030°12'0 0.0
2015-Aug-31 04:32N 59°53' E 030°12'0 0.0
2015-Aug-31 03:32N 59°53' E 030°12'0 0.0
2015-Aug-31 02:32N 59°53' E 030°12'0 0.0
2015-Aug-31 01:32N 59°53' E 030°12'0 0.0
2015-Aug-31 00:32N 59°53' E 030°12'0 0.0
2015-Aug-30 23:32N 59°53' E 030°12'0 0.0
2015-Aug-30 22:32N 59°53' E 030°12'0 0.0
2015-Aug-30 21:32N 59°53' E 030°12'0 0.0
2015-Aug-30 20:32N 59°53' E 030°12'0 0.0
2015-Aug-30 19:32N 59°53' E 030°12'0 0.0
2015-Aug-30 18:32N 59°53' E 030°12'0 0.0
2015-Aug-30 17:32N 59°53' E 030°12'0 0.0
2015-Aug-30 16:32N 59°53' E 030°12'0 0.0
2015-Aug-30 15:32N 59°53' E 030°12'0 0.0
2015-Aug-30 14:32N 59°53' E 030°12'0 0.0
2015-Aug-30 13:32N 59°53' E 030°12'0 0.0
2015-Aug-30 12:32N 59°53' E 030°12'0 0.0
2015-Aug-30 11:32N 59°53' E 030°12'0 0.0
2015-Aug-30 10:32N 59°53' E 030°12'1 0.5
2015-Aug-30 09:34N 59°53' E 030°11'1 1.3
2015-Aug-30 08:31N 59°53' E 030°13'0 0.0
2015-Aug-30 07:31N 59°53' E 030°13'0 0.0
2015-Aug-30 06:31N 59°53' E 030°13'0 0.0
2015-Aug-30 05:31N 59°53' E 030°13'0 0.0
2015-Aug-30 04:31N 59°53' E 030°13'0 0.0
2015-Aug-30 03:31N 59°53' E 030°13'0 0.0
2015-Aug-30 02:31N 59°53' E 030°13'0 0.0
2015-Aug-30 01:31N 59°53' E 030°13'0 0.0
2015-Aug-30 00:31N 59°53' E 030°13'0 0.0
2015-Aug-29 23:31N 59°53' E 030°13'0 0.0
2015-Aug-29 22:31N 59°53' E 030°13'0 0.0
2015-Aug-29 21:31N 59°53' E 030°13'0 0.0
2015-Aug-29 20:31N 59°53' E 030°13'0 0.0
2015-Aug-29 19:31N 59°53' E 030°13'0 0.0
2015-Aug-29 18:31N 59°53' E 030°13'0 0.0
2015-Aug-29 17:31N 59°53' E 030°13'0 0.0
2015-Aug-29 16:31N 59°53' E 030°13'0 0.0
2015-Aug-29 15:31N 59°53' E 030°13'1 0.8
2015-Aug-29 14:34N 59°53' E 030°12'8 8.2
2015-Aug-29 13:33N 59°56' E 029°56'1110.7
2015-Aug-29 12:34N 60°00' E 029°37'7011.4
2015-Aug-29 06:28N 60°02' E 027°18'1211.7
2015-Aug-29 05:25N 59°58' E 026°55'1112.4
2015-Aug-29 04:33N 59°59' E 026°34'1512.9
2015-Aug-29 03:25N 59°55' E 026°05'1213.1
2015-Aug-29 02:32N 59°52' E 025°43'5112.7
2015-Aug-28 22:33N 59°39' E 024°05'1312.5
2015-Aug-28 21:33N 59°36' E 023°41'1312.7
2015-Aug-28 20:32N 59°32' E 023°17'33611.8
2015-Aug-27 16:03N 55°39' E 015°46'612.4
2015-Aug-27 15:33N 55°37' E 015°35'1312.7
2015-Aug-27 14:33N 55°33' E 015°14'1312.6
2015-Aug-27 13:33N 55°28' E 014°54'1212.3
2015-Aug-27 12:33N 55°21' E 014°36'1212.4
2015-Aug-27 11:33N 55°12' E 014°22'1212.5
2015-Aug-27 10:33N 55°02' E 014°08'1212.4
2015-Aug-27 09:33N 54°57' E 013°48'1212.5
2015-Aug-27 08:33N 54°53' E 013°28'1212.4
2015-Aug-27 07:33N 54°49' E 013°07'1312.8
2015-Aug-27 06:33N 54°45' E 012°46'1312.7
2015-Aug-27 05:33N 54°39' E 012°27'1212.0
2015-Aug-27 04:33N 54°30' E 012°14'1110.8
2015-Aug-27 03:34N 54°25' E 011°57'1211.8
2015-Aug-27 02:33N 54°27' E 011°37'1212.3
2015-Aug-27 01:33N 54°33' E 011°18'1212.4
2015-Aug-27 00:33N 54°39' E 010°59'1110.9
2015-Aug-26 23:33N 54°49' E 010°52'1312.3
2015-Aug-26 22:32N 55°00' E 011°01'1212.1
2015-Aug-26 21:33N 55°12' E 011°05'1212.1
2015-Aug-26 20:33N 55°24' E 010°60'5911.8
2015-Aug-26 15:33N 56°21' E 011°26'1313.6
2015-Aug-26 14:33N 56°32' E 011°38'1312.9
2015-Aug-26 13:33N 56°43' E 011°50'1312.8
2015-Aug-26 12:33N 56°56' E 011°45'1313.0
2015-Aug-26 11:33N 57°08' E 011°38'1313.1
2015-Aug-26 10:33N 57°20' E 011°29'1312.6
2015-Aug-26 09:33N 57°31' E 011°16'1212.3
2015-Aug-26 08:33N 57°40' E 011°01'1111.0
2015-Aug-26 07:33N 57°47' E 010°44'1312.6
2015-Aug-26 06:33N 57°49' E 010°21'1110.8
2015-Aug-26 05:30N 57°48' E 009°60'17510.8
2015-Aug-25 13:23N 55°33' E 006°39'1012.4
2015-Aug-25 12:33N 55°23' E 006°35'1111.0
2015-Aug-25 11:33N 55°12' E 006°39'1212.1
2015-Aug-25 10:33N 55°01' E 006°48'1312.6
2015-Aug-25 09:33N 54°49' E 006°56'1312.6
2015-Aug-25 08:33N 54°38' E 007°05'1212.4
2015-Aug-25 07:33N 54°27' E 007°15'1313.0
2015-Aug-25 06:33N 54°16' E 007°26'1313.1
2015-Aug-25 05:33N 54°04' E 007°36'1312.5
2015-Aug-25 04:33N 53°53' E 007°47'1212.5
2015-Aug-25 03:33N 53°49' E 008°07'1514.9
2015-Aug-25 02:34N 53°39' E 008°25'5 5.2
2015-Aug-25 01:34N 53°35' E 008°31'0 0.0
2015-Aug-25 00:33N 53°35' E 008°31'0 0.0
2015-Aug-24 23:33N 53°35' E 008°31'0 0.0
2015-Aug-24 22:33N 53°35' E 008°31'0 0.0
2015-Aug-24 21:33N 53°35' E 008°31'0 0.0
2015-Aug-24 20:33N 53°35' E 008°31'0 0.0
2015-Aug-24 19:33N 53°35' E 008°31'0 0.0
2015-Aug-24 18:33N 53°35' E 008°31'0 0.0
2015-Aug-24 17:33N 53°35' E 008°31'0 0.0
2015-Aug-24 16:33N 53°35' E 008°31'0 0.0
2015-Aug-24 15:33N 53°35' E 008°31'0 0.0
2015-Aug-24 14:33N 53°35' E 008°31'0 0.0
2015-Aug-24 13:33N 53°35' E 008°31'0 0.0
2015-Aug-24 12:33N 53°35' E 008°31'0 0.0
2015-Aug-24 11:33N 53°35' E 008°31'0 0.0
2015-Aug-24 10:33N 53°35' E 008°31'0 0.0
2015-Aug-24 09:33N 53°35' E 008°31'0 0.0
2015-Aug-24 08:33N 53°35' E 008°31'0 0.0
2015-Aug-24 07:33N 53°35' E 008°31'0 0.0
2015-Aug-24 06:33N 53°35' E 008°31'3 2.9
2015-Aug-24 05:33N 53°37' E 008°28'1111.2
2015-Aug-24 04:33N 53°45' E 008°13'1212.2
2015-Aug-24 03:33N 53°51' E 007°56'6 6.2
2015-Aug-24 02:34N 53°58' E 007°54'1514.7
2015-Aug-24 01:33N 53°60' E 008°19'1413.7
2015-Aug-24 00:33N 53°55' E 008°41'1413.7
2015-Aug-23 23:33N 53°52' E 009°03'1212.1
2015-Aug-23 22:33N 53°48' E 009°23'1515.3
2015-Aug-23 21:34N 53°35' E 009°37'1211.9
2015-Aug-23 20:33N 53°33' E 009°56'2 2.2
2015-Aug-23 19:29N 53°32' E 009°60'0 0.0
2015-Aug-23 18:32N 53°32' E 009°60'0 0.0
2015-Aug-23 17:29N 53°32' E 009°60'0 0.0
2015-Aug-23 16:29N 53°32' E 009°60'0 0.0
2015-Aug-23 15:32N 53°32' E 009°60'0 0.0
2015-Aug-23 14:32N 53°32' E 009°60'0 0.0
2015-Aug-23 13:32N 53°32' E 009°60'0 0.0
2015-Aug-23 12:32N 53°32' E 009°60'  

Dump ship's entire track history